Thursday, November 27, 2014, 2:20 PM EST

KW99, Petersburg, Grant County Airport

Location: Petersburg, WV, United States Lat: 38.983
Local Time: 2:20 PM EST (19:20 GMT) Lon: -79.133
Time Zone: US/Eastern Elev: 961 ft

Show me the last for .
Show Decoded

2014-11-27 13:55 METAR KW99 271855Z AUTO 00000KT 7SM BKN039 OVC049 02/01 A3007 RMK AO2 P0005
                 T00180011 =
2014-11-27 13:35 METAR KW99 271835Z AUTO 00000KT 5SM BR BKN042 BKN049 OVC055 02/01 A3006 RMK AO2
                 P0004 T00180011 =
2014-11-27 13:15 METAR KW99 271815Z AUTO 00000KT 5SM BR SCT040 SCT046 OVC055 02/01 A3006 RMK AO2
                 P0002 T00200013 =
2014-11-27 12:55 METAR KW99 271755Z AUTO 00000KT 7SM SCT046 OVC055 02/01 A3006 RMK AO2 P0009
                 60024 T00200013 10020 21011 =
2014-11-27 12:10 METAR KW99 271710Z AUTO 17003KT 4SM BR SCT003 SCT049 BKN055 02/01 A3006 RMK AO2
                 P0002 T00170011 =
2014-11-27 11:55 METAR KW99 271655Z AUTO 00000KT 3SM BR SCT003 OVC055 01/01 A3006 RMK AO2 P0007
                 T00130008 =
2014-11-27 11:35 METAR KW99 271635Z AUTO 00000KT 3SM BR BKN003 BKN040 OVC055 01/00 A3006 RMK AO2
                 P0003 T00080003 =
2014-11-27 11:20 METAR KW99 271620Z AUTO 00000KT 2 1/2SM BR BKN003 OVC040 01/00 A3007 RMK AO2
                 P0001 T00050001 =
2014-11-27 10:55 METAR KW99 271555Z AUTO 00000KT 2SM BR OVC003 01/00 A3007 RMK AO2 P0006
                 T00050000 =
2014-11-27 10:35 METAR KW99 271535Z AUTO 00000KT 2 1/2SM BR BKN003 OVC049 00/00 A3006 RMK AO2
                 P0005 T00040000 =
2014-11-27 10:15 METAR KW99 271515Z AUTO 14003KT 1 3/4SM BR OVC003 00/00 A3006 RMK AO2 P0004
                 T00030000 =
2014-11-27 09:55 METAR KW99 271455Z AUTO 00000KT 3/4SM BR OVC001 00/00 A3006 RMK AO2 P0001 60001
                 T00030000 =
2014-11-27 09:35 METAR KW99 271435Z AUTO 00000KT 1/2SM FG OVC001 00/00 A3005 RMK AO2 P0001
                 T00001003 =
2014-11-27 09:15 METAR KW99 271415Z AUTO 00000KT M1/4SM FG OVC001 00/00 A3005 RMK AO2 T10021005 =
2014-11-27 08:55 METAR KW99 271355Z AUTO 00000KT 1/4SM FZFG OVC001 00/M01 A3005 RMK AO2 T10031007
                 =
2014-11-27 08:35 METAR KW99 271335Z AUTO 00000KT 1/4SM FZFG OVC001 M01/M01 A3005 RMK AO2
                 T10071011 =
2014-11-27 08:15 METAR KW99 271315Z AUTO 00000KT 1/4SM FZFG OVC001 M01/M01 A3005 RMK AO2
                 T10091014 =
2014-11-27 07:55 METAR KW99 271255Z AUTO 00000KT 1/4SM FZFG OVC001 M01/M01 A3004 RMK AO2
                 T10071012 =
2014-11-27 07:35 METAR KW99 271235Z AUTO 00000KT M1/4SM FZFG OVC001 M01/M01 A3004 RMK AO2
                 T10091014 =
2014-11-27 07:15 METAR KW99 271215Z AUTO 00000KT 1/4SM FZFG OVC001 M01/M01 A3003 RMK AO2
                 T10071012 =
2014-11-27 06:55 METAR KW99 271155Z AUTO 00000KT 1/4SM FZFG OVC001 M01/M01 A3003 RMK AO2 7////
                 T10071011 10001 21010 =
2014-11-27 06:35 METAR KW99 271135Z AUTO 00000KT 1/4SM FZFG OVC001 M01/M01 A3002 RMK AO2
                 T10081012 =
2014-11-27 06:15 METAR KW99 271115Z AUTO 00000KT 1/4SM FZFG OVC001 M01/M01 A3002 RMK AO2
                 T10061010 =
2014-11-27 05:55 METAR KW99 271055Z AUTO 00000KT 1/4SM FZFG OVC001 M01/M01 A3001 RMK AO2
                 T10061010 =
2014-11-27 05:35 METAR KW99 271035Z AUTO 00000KT 1/4SM FZFG OVC001 00/M01 A3000 RMK AO2 T10031008
                 =
2014-11-27 05:15 METAR KW99 271015Z AUTO 00000KT 1/4SM FZFG OVC001 00/M01 A3000 RMK AO2 T10041009
                 =
2014-11-27 04:55 METAR KW99 270955Z AUTO 00000KT 1/4SM FZFG OVC001 00/M01 A3000 RMK AO2 T10041008
                 =
2014-11-27 04:35 METAR KW99 270935Z AUTO 00000KT 1/4SM FZFG OVC001 00/M01 A3000 RMK AO2 T10031006
                 =
2014-11-27 04:15 METAR KW99 270915Z AUTO 00000KT 1/4SM FZFG OVC001 00/M01 A3000 RMK AO2 T10021006
                 =
2014-11-27 03:55 METAR KW99 270855Z AUTO 00000KT 1/2SM FG OVC001 00/M01 A3000 RMK AO2 T10021006 =
2014-11-27 03:15 METAR KW99 270815Z AUTO 00000KT 1/4SM FZFG OVC001 00/M01 A3000 RMK AO2 T10031007
                 =
2014-11-27 02:35 METAR KW99 270735Z AUTO 00000KT 1/4SM FZFG OVC001 M01/M01 A3000 RMK AO2
                 T10101013 =
2014-11-27 02:15 METAR KW99 270715Z AUTO 00000KT 1/4SM FZFG OVC001 M01/M01 A3000 RMK AO2
                 T10071011 =
2014-11-27 01:55 METAR KW99 270655Z AUTO 00000KT 1/4SM FZFG OVC001 00/M01 A3000 RMK AO2 T10021007
                 =
2014-11-27 01:35 METAR KW99 270635Z AUTO 00000KT 1/2SM FZFG OVC001 M01/M01 A3000 RMK AO2
                 T10071010 =
2014-11-27 01:15 METAR KW99 270615Z AUTO 00000KT 1/2SM FZFG OVC001 00/M01 A3000 RMK AO2 T10021006
                 =
2014-11-27 00:55 METAR KW99 270555Z AUTO 00000KT 3/4SM BR BKN001 SCT005 OVC041 00/00 A3000 RMK
                 AO2 6//// T10011005 10005 21001 =
2014-11-27 00:35 METAR KW99 270535Z AUTO 00000KT 3/4SM BR OVC003 00/00 A3000 RMK AO2 T00001003
                 PNO =
2014-11-27 00:15 METAR KW99 270515Z AUTO 00000KT 1 3/4SM BR BKN003 BKN033 OVC041 00/00 A3001 RMK
                 AO2 T00001002 =
2014-11-26 23:55 METAR KW99 270455Z AUTO 00000KT 1 1/2SM BR BKN006 OVC035 00/00 A3000 RMK AO2
                 T00011001 =
2014-11-26 23:35 METAR KW99 270435Z AUTO 00000KT 3/4SM BR OVC003 00/00 A3000 RMK AO2 T00010000 =
2014-11-26 23:15 METAR KW99 270415Z AUTO 00000KT 3/4SM BR OVC003 00/00 A3000 RMK AO2 T00001001 =
2014-11-26 21:40 METAR KW99 270240Z AUTO 00000KT 1/4SM FG OVC001 00/00 A3001 RMK AO2 T00010000 =
2014-11-26 21:15 METAR KW99 270215Z AUTO 00000KT 1/4SM FG OVC001 00/00 A3001 RMK AO2 T00011001 =
2014-11-26 20:55 METAR KW99 270155Z AUTO 00000KT 1/4SM FG OVC001 00/00 A3000 RMK AO2 P0001
                 T00011001 =
2014-11-26 20:35 METAR KW99 270135Z AUTO 00000KT 1/4SM FG OVC001 00/00 A3000 RMK AO2 P0001
                 T00020000 =
2014-11-26 20:20 METAR KW99 270120Z AUTO 00000KT 1/4SM FG OVC001 00/00 A3000 RMK AO2 P0001
                 T00020000 =
2014-11-26 19:35 METAR KW99 270035Z AUTO 00000KT 1/2SM FG OVC003 00/00 A3000 RMK AO2 P0001
                 T00030000 =
2014-11-26 19:10 METAR KW99 270010Z AUTO 00000KT 1/2SM FG OVC003 00/00 A3000 RMK AO2 P0001
                 T00020000 =
2014-11-26 18:50 METAR KW99 262350Z AUTO 00000KT 1/2SM FG OVC003 01/00 A3000 RMK AO2 P0001 6////
                 T00050000 10013 20001 =
2014-11-26 17:50 METAR KW99 262250Z AUTO 00000KT 5SM BR SCT009 BKN049 OVC120 01/00 A3000 RMK AO2
                 P0002 T00110004 =
2014-11-26 17:30 METAR KW99 262230Z AUTO 00000KT 3SM UP BKN009 BKN095 OVC120 01/00 A3000 RMK AO2
                 P0002 T00070001 =
2014-11-26 17:15 METAR KW99 262215Z AUTO 00000KT 4SM UP SCT009 BKN030 OVC090 01/00 A3001 RMK AO2
                 P0001 T00100004 =
2014-11-26 16:50 METAR KW99 262150Z AUTO 00000KT 4SM UP SCT007 SCT016 OVC030 01/01 A3000 RMK AO2
                 P0003 T00120006 =
2014-11-26 15:50 METAR KW99 262050Z AUTO 00000KT 2SM -SN OVC006 01/01 A3000 RMK AO2 P0003 60004
                 T00130010 =
2014-11-26 15:20 METAR KW99 262020Z AUTO 00000KT 1 1/4SM -SN OVC006 01/01 A3000 RMK AO2 P0001
                 T00130009 =
2014-11-26 14:35 METAR KW99 261935Z AUTO 00000KT 1SM -SN OVC006 01/01 A3000 RMK AO2 T00100006 =

Support USWX by starting your Amazon purchase here.